Punta Galea, Euskadi

latitud = 43° 22' 30''N | longitud = 003° 01' 10''W
90 metros sobre el nivel del mar | datos mensuales

Fecha, hora, temperatura, viento dirección y velocidad, humedad y presión.

  • 23-04-2018 10:00:00 | 13.20°C | Noroeste |3.00 km/h | 97.00% | 1012.30 hPa
  • 23-04-2018 09:00:00 | 13.30°C | Noroeste |3.00 km/h | 97.00% | 1011.80 hPa
  • 23-04-2018 08:00:00 | 13.20°C | Noroeste |2.00 km/h | 97.00% | 1010.90 hPa
  • 23-04-2018 07:00:00 | 13.00°C | Norte |4.00 km/h | 97.00% | 1010.70 hPa
  • 23-04-2018 06:00:00 | 12.90°C | Nordeste |5.00 km/h | 97.00% | 1010.00 hPa
  • 23-04-2018 05:00:00 | 12.80°C | Nordeste |5.00 km/h | 97.00% | 1009.90 hPa
  • 23-04-2018 04:00:00 | 12.90°C | Norte |5.00 km/h | 97.00% | 1009.90 hPa
  • 23-04-2018 03:00:00 | 13.00°C | Noroeste |10.00 km/h | 97.00% | 1010.30 hPa
  • 23-04-2018 02:00:00 | 13.30°C | Noroeste |10.00 km/h | 97.00% | 1010.20 hPa
  • 23-04-2018 01:00:00 | 13.70°C | Noroeste |9.00 km/h | 97.00% | 1010.00 hPa
  • 23-04-2018 00:00:00 | 13.90°C | Oeste |3.00 km/h | 96.00% | 1009.70 hPa
  • 22-04-2018 23:00:00 | 13.90°C | Este |5.00 km/h | 96.00% | 1009.00 hPa
  • 22-04-2018 22:00:00 | 14.20°C | Oeste |4.00 km/h | 96.00% | 1009.10 hPa
  • 22-04-2018 21:00:00 | 14.10°C | Norte |8.00 km/h | 96.00% | 1008.40 hPa
  • 22-04-2018 20:00:00 | 14.50°C | Noroeste |11.00 km/h | 95.00% | 1007.40 hPa
  • 22-04-2018 19:00:00 | 15.70°C | Noroeste |6.00 km/h | 88.00% | 1006.50 hPa
  • 22-04-2018 18:00:00 | 17.10°C | Norte |9.00 km/h | 81.00% | 1006.00 hPa
  • 22-04-2018 17:00:00 | 18.20°C | Norte |6.00 km/h | 77.00% | 1006.20 hPa
  • 22-04-2018 16:00:00 | 17.90°C | Norte |5.00 km/h | 76.00% | 1006.20 hPa
  • 22-04-2018 15:00:00 | 18.00°C | Norte |6.00 km/h | 75.00% | 1006.60 hPa
  • 22-04-2018 14:00:00 | 17.50°C | Norte |8.00 km/h | 77.00% | 1006.90 hPa
  • 22-04-2018 13:00:00 | 18.70°C | Norte |8.00 km/h | 66.00% | 1007.90 hPa
  • 22-04-2018 12:00:00 | 18.90°C | Norte |5.00 km/h | 59.00% | 1007.80 hPa
  • 22-04-2018 11:00:00 | 19.20°C | Norte |3.00 km/h | 57.00% | 1007.50 hPa